Anna Desgagnes — VCWS — position and weather

sailwx.info

Track history (hours):
 
Tides and Currents Weather Stations Pressure Air Temp Water Temp Dewpoint Dewpoint Depression Visibility Wind Speed Wind Dir Waves Ship Positions

Anna Desgagnes

Last reported at 2017-May-17 13:00 UTC. Time now 2017-Jun-22 18:33 UTC.
Position N 45°30' W 073°30'.
Warning: this ship's position is 36 days out of date.

Length 173 m; draft 7 m.

Type: Ship. MMSI: 316297000.

Wind from 110 at 1 knots

Air temperature 18.5 ° C
Dewpoint 10.8 ° C

Date/timePositionNaut miles runAvg speedWind from/ knotsBaromVisibWave heightAir tempDewpointWater temp
2017-May-17 13:00N 45°30' W 073°30'0 0.0 110 / 1 18.510.8
2017-May-17 12:00N 45°30' W 073°30'0 0.0 140 / 2 16.310.3
2017-May-17 11:00N 45°30' W 073°30'0 0.0 140 / 2 16.0 9.7
2017-May-17 10:00N 45°30' W 073°30'0 0.0 160 / 3 15.6 9.2
2017-May-17 09:00N 45°30' W 073°30'0 0.0 170 / 2 14.8 9.4
2017-May-17 08:00N 45°30' W 073°30'0 0.0 150 / 2 15.1 9.9
2017-May-17 07:00N 45°30' W 073°30'0 0.0 190 / 5 16.4 8.1
2017-May-17 06:00N 45°30' W 073°30'0 0.0 230 / 6 17.0 7.2
2017-May-17 05:00N 45°30' W 073°30'0 0.0 210 / 7 16.9 8.1
2017-May-17 04:00N 45°30' W 073°30'0 0.0 210 / 6 18.1 7.8
2017-May-17 03:00N 45°30' W 073°30'0 0.0 230 / 9 19.0 6.8
2017-May-17 02:00N 45°30' W 073°30'0 0.0 230 / 7 19.4 6.4
2017-May-17 01:00N 45°30' W 073°30'0 0.0 230 / 9 19.7 7.1
2017-May-17 00:00N 45°30' W 073°30'0 0.0 220 / 6 20.4 7.3
2017-May-16 23:00N 45°30' W 073°30'0 0.0 220 / 9 21.2 6.1
2017-May-16 22:00N 45°30' W 073°30'0 0.0 210 / 12 21.4 5.9
2017-May-16 21:00N 45°30' W 073°30'0 0.0 220 / 10 22.2 5.1
2017-May-16 20:00N 45°30' W 073°30'0 0.0 200 / 13 21.4 5.6
2017-May-16 19:00N 45°30' W 073°30'0 0.0 200 / 11 21.0 5.6
2017-May-16 18:00N 45°30' W 073°30'0 0.0 220 / 6 20.0 6.1
2017-May-16 17:00N 45°30' W 073°30'0 0.0 210 / 8 18.4 6.7
2017-May-16 16:00N 45°30' W 073°30'0 0.0 220 / 7 17.3 6.8
2017-May-16 15:00N 45°30' W 073°30'0 0.0 250 / 2 16.5 6.4
2017-May-16 14:00N 45°30' W 073°30'0 0.0 250 / 4 15.5 6.6
2017-May-16 13:00N 45°30' W 073°30'0 0.0 240 / 2 14.6 6.5
2017-May-16 12:00N 45°30' W 073°30'0 0.0 270 / 2 13.9 7.2
2017-May-16 11:00N 45°30' W 073°30'0 0.0 220 / 6 12.6 7.5
2017-May-16 10:00N 45°30' W 073°30'0 0.0 210 / 5 11.7 7.9
2017-May-16 09:00N 45°30' W 073°30'0 0.0 220 / 2 12.8 7.7
2017-May-16 08:00N 45°30' W 073°30'0 0.0 290 / 8 13.8 7.4
2017-May-16 07:00N 45°30' W 073°30'0 0.0 310 / 6 14.4 7.2
2017-May-16 06:00N 45°30' W 073°30'0 0.0 250 / 4 15.1 6.8
2017-May-16 05:00N 45°30' W 073°30'0 0.0 290 / 6 16.1 6.4
2017-May-16 04:00N 45°30' W 073°30'0 0.0 320 / 11 17.2 5.4
2017-May-16 03:00N 45°30' W 073°30'0 0.0 300 / 8 18.0 5.5
2017-May-16 02:00N 45°30' W 073°30'0 0.0 300 / 10 19.0 5.3
2017-May-16 01:00N 45°30' W 073°30'0 0.0 310 / 10 20.2 5.1
2017-May-16 00:00N 45°30' W 073°30'0 0.0 310 / 12 21.7 4.4
2017-May-15 23:00N 45°30' W 073°30'0 0.0 330 / 11 21.8 4.7
2017-May-15 22:00N 45°30' W 073°30'0 0.0 350 / 2 20.5 6.5
2017-May-15 21:00N 45°30' W 073°30'0 0.0 350 / 2 20.6 6.4
2017-May-15 20:00N 45°30' W 073°30'0 0.0 030 / 5 20.1 6.5
2017-May-15 19:00N 45°30' W 073°30'0 0.0 350 / 12 20.1 5.8
2017-May-15 18:00N 45°30' W 073°30'0 0.0 350 / 12 18.5 6.2
2017-May-15 17:00N 45°30' W 073°30'0 0.0 010 / 6 17.7 5.4
2017-May-15 16:00N 45°30' W 073°30'0 0.0 010 / 8 16.5 6.2
2017-May-15 15:00N 45°30' W 073°30'0 0.0 350 / 16 15.3 7.2
2017-May-15 14:00N 45°30' W 073°30'0 0.0 340 / 13 14.2 7.9
2017-May-15 13:00N 45°30' W 073°30'0 0.0 340 / 13 13.4 7.7
2017-May-15 12:00N 45°30' W 073°30'0 0.0 320 / 10 12.3 8.3
2017-May-15 11:00N 45°30' W 073°30'0 0.0 320 / 11 11.4 8.8
2017-May-15 10:00N 45°30' W 073°30'0 0.0 310 / 13 11.1 8.9
2017-May-15 09:00N 45°30' W 073°30'0 0.0 310 / 12 10.8 9.0
2017-May-15 08:00N 45°30' W 073°30'0 0.0 310 / 10 10.5 9.0
2017-May-15 07:00N 45°30' W 073°30'0 0.0 310 / 10 10.1 9.2
2017-May-15 06:00N 45°30' W 073°30'0 0.0 330 / 10 9.9 9.6
2017-May-15 05:00N 45°30' W 073°30'0 0.0 330 / 10 9.6 9.6
2017-May-15 04:00N 45°30' W 073°30'0 0.0 360 / 8 9.7 9.7
2017-May-15 03:00N 45°30' W 073°30'0 0.0 350 / 12 10.3 9.8
2017-May-15 02:00N 45°30' W 073°30'0 0.0 350 / 11 10.7 9.3
2017-May-15 01:00N 45°30' W 073°30'0 0.0 360 / 8 10.6 9.4
2017-May-15 00:00N 45°30' W 073°30'0 0.0 360 / 8 10.5 9.5
2017-May-14 23:00N 45°30' W 073°30'0 0.0 360 / 7 10.7 8.1
2017-May-14 22:00N 45°30' W 073°30'0 0.0 360 / 8 11.3 9.1
2017-May-14 21:00N 45°30' W 073°30'0 0.0 010 / 4 11.3 8.8
2017-May-14 20:00N 45°30' W 073°30'0 0.0 350 / 8 11.1 8.4
2017-May-14 19:00N 45°30' W 073°30'0 0.0 030 / 2 11.7 9.3
2017-May-14 18:00N 45°30' W 073°30'0 0.0 100 / 2 10.4 9.6
2017-May-14 17:00N 45°30' W 073°30'0 0.0 090 / 2 10.5 9.8
2017-May-14 16:00N 45°30' W 073°30'0 0.0 090 / 3 10.3 9.3
2017-May-14 15:00N 45°30' W 073°30'0 0.0 100 / 2 10.5 8.3
2017-May-14 14:00N 45°30' W 073°30'0 0.0 110 / 2 10.4 9.3
2017-May-14 13:00N 45°30' W 073°30'0 0.0 110 / 2 9.8 9.5
2017-May-14 12:00N 45°30' W 073°30'0 0.0 120 / 2 9.3 9.4
2017-May-14 11:00N 45°30' W 073°30'0 0.0 140 / 5 9.4 9.3
2017-May-14 10:00N 45°30' W 073°30'0 0.0 140 / 6 9.6 9.6
2017-May-14 09:00N 45°30' W 073°30'0 0.0 140 / 5 10.210.2
2017-May-14 08:00N 45°30' W 073°30'0 0.0 130 / 4 10.510.4
2017-May-14 07:00N 45°30' W 073°30'0 0.0 150 / 5 11.010.9
2017-May-14 06:00N 45°30' W 073°30'0 0.0 180 / 7 11.211.0
2017-May-14 05:00N 45°30' W 073°30'0 0.0 160 / 2 12.212.2
2017-May-14 04:00N 45°30' W 073°30'0 0.0 150 / 3 12.312.3
2017-May-14 03:00N 45°30' W 073°30'0 0.0 280 / 2 12.412.0
2017-May-14 02:00N 45°30' W 073°30'0 0.0 290 / 3 13.111.1
2017-May-14 01:00N 45°30' W 073°30'0 0.0 240 / 5 13.410.2
2017-May-14 00:00N 45°30' W 073°30'0 0.0 310 / 8 14.011.6
2017-May-13 23:00N 45°30' W 073°30'0 0.0 270 / 2 15.6 9.8
2017-May-13 22:00N 45°30' W 073°30'0 0.0 240 / 7 16.2 9.8
2017-May-13 21:00N 45°30' W 073°30'0 0.0 090 / 3 17.0 7.5
2017-May-13 20:00N 45°30' W 073°30'0 0.0 160 / 6 18.0 7.0
2017-May-13 19:00N 45°30' W 073°30'0 0.0 140 / 5 18.3 7.5
2017-May-13 18:00N 45°30' W 073°30'0 0.0 140 / 7 18.5 6.9
2017-May-13 17:00N 45°30' W 073°30'0 0.0 140 / 8 18.0 6.7
2017-May-13 16:00N 45°30' W 073°30'0 0.0 140 / 9 17.8 7.3
2017-May-13 15:00N 45°30' W 073°30'0 0.0 130 / 6 17.2 7.6
2017-May-13 14:00N 45°30' W 073°30'0 0.0 120 / 4 16.0 9.0
2017-May-13 13:00N 45°30' W 073°30'0 0.0 140 / 6 14.6 9.3
2017-May-13 12:00N 45°30' W 073°30'0 0.0 150 / 3 13.1 9.7
2017-May-13 11:00N 45°30' W 073°30'0 0.0 130 / 2 11.710.1
2017-May-13 10:00N 45°30' W 073°30'0 0.0 10.5 9.3
2017-May-13 09:00N 45°30' W 073°30'0 0.0 360 / 2 10.1 9.4
2017-May-13 08:00N 45°30' W 073°30'0 0.0 350 / 4 10.4 9.5
2017-May-13 07:00N 45°30' W 073°30'0 0.0 350 / 7 11.3 8.9
2017-May-13 06:00N 45°30' W 073°30'0 0.0 350 / 8 11.6 8.5
2017-May-13 05:00N 45°30' W 073°30'0 0.0 350 / 8 12.1 8.5
2017-May-13 04:00N 45°30' W 073°30'0 0.0 350 / 7 12.8 8.2
2017-May-13 03:00N 45°30' W 073°30'0 0.0 360 / 6 13.6 8.1
2017-May-13 02:00N 45°30' W 073°30'0 0.0 360 / 7 14.0 8.3
2017-May-13 01:00N 45°30' W 073°30'0 0.0 360 / 7 14.7 8.3
2017-May-13 00:00N 45°30' W 073°30'0 0.0 360 / 8 15.8 8.2
2017-May-12 23:00N 45°30' W 073°30'0 0.0 360 / 9 16.4 8.3
2017-May-12 22:00N 45°30' W 073°30'0 0.0 360 / 9 16.7 8.3
2017-May-12 21:00N 45°30' W 073°30'0 0.0 350 / 10 16.3 8.0
2017-May-12 20:00N 45°30' W 073°30'0 0.0 350 / 11 15.9 8.1
2017-May-12 19:00N 45°30' W 073°30'0 0.0 350 / 7 15.6 7.3
2017-May-12 18:00N 45°30' W 073°30'0 0.0 350 / 7 15.0 8.1
2017-May-12 17:00N 45°30' W 073°30'0 0.0 360 / 5 14.6 7.8
2017-May-12 16:00N 45°30' W 073°30'0 0.0 350 / 5 14.4 7.6
2017-May-12 15:00N 45°30' W 073°30'0 0.0 360 / 4 13.6 7.7
2017-May-12 14:00N 45°30' W 073°30'0 0.0 070 / 1 13.9 8.0
2017-May-12 13:00N 45°30' W 073°30'0 0.0 030 / 4 12.0 8.2
2017-May-12 12:00N 45°30' W 073°30'0 0.0 360 / 4 10.0 8.5
2017-May-12 11:00N 45°30' W 073°30'0 0.0 360 / 7 8.5 8.1
2017-May-12 10:00N 45°30' W 073°30'0 0.0 010 / 5 8.5 8.2
2017-May-12 09:00N 45°30' W 073°30'0 0.0 360 / 6 8.4 8.3
2017-May-12 08:00N 45°30' W 073°30'0 0.0 360 / 7 8.2 8.2
2017-May-12 07:00N 45°30' W 073°30'0 0.0 360 / 7 8.1 8.1
2017-May-12 06:00N 45°30' W 073°30'0 0.0 360 / 8 8.6 8.6
2017-May-12 05:00N 45°30' W 073°30'0 0.0 360 / 5 9.3 9.1
2017-May-12 04:00N 45°30' W 073°30'0 0.0 020 / 6 9.9 9.3
2017-May-12 03:00N 45°30' W 073°30'0 0.0 020 / 5 10.6 8.9
2017-May-12 02:00N 45°30' W 073°30'0 0.0 020 / 6 11.5 8.9
2017-May-12 01:00N 45°30' W 073°30'0 0.0 360 / 7 11.4 9.3
2017-May-12 00:00N 45°30' W 073°30'0 0.0 360 / 8 12.3 8.5
2017-May-11 23:00N 45°30' W 073°30'0 0.0 360 / 10 12.3 8.1
2017-May-11 22:00N 45°30' W 073°30'0 0.0 020 / 6 13.0 7.2
2017-May-11 21:00N 45°30' W 073°30'0 0.0 020 / 8 13.0 6.4
2017-May-11 20:00N 45°30' W 073°30'0 0.0 020 / 7 12.7 6.7
2017-May-11 19:00N 45°30' W 073°30'0 0.0 030 / 9 12.2 6.2
2017-May-11 18:00N 45°30' W 073°30'0 0.0 030 / 7 11.3 6.3
2017-May-11 17:00N 45°30' W 073°30'0 0.0 030 / 8 10.2 6.2
2017-May-11 16:00N 45°30' W 073°30'0 0.0 360 / 8 9.3 6.5
2017-May-11 15:00N 45°30' W 073°30'0 0.0 010 / 8 8.5 6.7
2017-May-11 14:00N 45°30' W 073°30'0 0.0 020 / 10 8.6 6.3
2017-May-11 13:00N 45°30' W 073°30'0 0.0 020 / 11 8.6 6.1
2017-May-11 12:00N 45°30' W 073°30'0 0.0 020 / 8 7.8 6.0
2017-May-11 11:00N 45°30' W 073°30'0 0.0 010 / 7 6.9 5.9
2017-May-11 10:00N 45°30' W 073°30'0 0.0 360 / 7 6.9 5.5
2017-May-11 09:00N 45°30' W 073°30'0 0.0 010 / 6 7.1 5.3
2017-May-11 08:00N 45°30' W 073°30'0 0.0 030 / 7 7.1 5.5
2017-May-11 07:00N 45°30' W 073°30'0 0.0 030 / 7 7.6 5.4
2017-May-11 06:00N 45°30' W 073°30'0 0.0 020 / 8 8.6 5.0
2017-May-11 05:00N 45°30' W 073°30'0 0.0 020 / 5 9.1 4.8
2017-May-11 04:00N 45°30' W 073°30'0 0.0 020 / 3 9.1 5.1
2017-May-11 03:00N 45°30' W 073°30'0 0.0 300 / 2 10.0 4.5
2017-May-11 02:00N 45°30' W 073°30'0 0.0 030 / 3 10.4 3.6
2017-May-11 01:00N 45°30' W 073°30'0 0.0 050 / 1 10.9 3.5
2017-May-11 00:00N 45°30' W 073°30'0 0.0 030 / 1 11.1 2.8
2017-May-10 23:00N 45°30' W 073°30'0 0.0 040 / 2 11.6 2.3
2017-May-10 22:00N 45°30' W 073°30'0 0.0 350 / 4 11.3 1.2
2017-May-10 21:00N 45°30' W 073°30'0 0.0 010 / 5 11.3 2.1
2017-May-10 20:00N 45°30' W 073°30'0 0.0 020 / 5 10.9 2.1
2017-May-10 19:00N 45°30' W 073°30'0 0.0 010 / 5 10.3 1.3
2017-May-10 18:00N 45°30' W 073°30'0 0.0 020 / 7 9.6 1.0
2017-May-10 17:00N 45°30' W 073°30'0 0.0 350 / 9 10.1 0.6
2017-May-10 16:00N 45°30' W 073°30'0 0.0 360 / 9 9.7 1.0
2017-May-10 15:00N 45°30' W 073°30'0 0.0 360 / 9 9.1-0.0
2017-May-10 14:00N 45°30' W 073°30'0 0.0 360 / 6 8.5-0.2
2017-May-10 13:00N 45°30' W 073°30'0 0.0 340 / 7 7.5-1.3
2017-May-10 12:00N 45°30' W 073°30'0 0.0 340 / 7 6.0-1.3
2017-May-10 11:00N 45°30' W 073°30'0 0.0 320 / 6 6.0-1.5
2017-May-10 10:00N 45°30' W 073°30'0 0.0 320 / 8 5.5-1.2
2017-May-10 09:00N 45°30' W 073°30'0 0.0 330 / 6 5.7-0.8
2017-May-10 08:00N 45°30' W 073°30'0 0.0 320 / 7 5.8-0.5
2017-May-10 07:00N 45°30' W 073°30'0 0.0 340 / 6 6.2-0.1
2017-May-10 06:00N 45°30' W 073°30'0 0.0 340 / 5 6.7-0.5
2017-May-10 05:00N 45°30' W 073°30'0 0.0 320 / 4 7.0-1.8
2017-May-10 04:00N 45°30' W 073°30'0 0.0 280 / 4 7.0-2.5
2017-May-10 03:00N 45°30' W 073°30'0 0.0 300 / 4 7.2-2.1
2017-May-10 02:00N 45°30' W 073°30'0 0.0 020 / 1 7.5-0.2
2017-May-10 01:00N 45°30' W 073°30'0 0.0 030 / 2 7.6-2.1
2017-May-10 00:00N 45°30' W 073°30'0 0.0 060 / 1 7.8-1.6
2017-May-09 23:00N 45°30' W 073°30'0 0.0 160 / 1 7.7-2.4
2017-May-09 22:00N 45°30' W 073°30'0 0.0 120 / 2 7.7-0.9
2017-May-09 21:00N 45°30' W 073°30'0 0.0 110 / 2 7.3-0.3
2017-May-09 20:00N 45°30' W 073°30'0 0.0 140 / 1 7.4-1.8
2017-May-09 19:00N 45°30' W 073°30'0 0.0 110 / 2 6.8-1.7
2017-May-09 18:00N 45°30' W 073°30'0 0.0 110 / 3 6.6-1.2
2017-May-09 17:00N 45°30' W 073°30'0 0.0 190 / 4 5.7-2.3
2017-May-09 16:00N 45°30' W 073°30'0 0.0 210 / 3 4.6-2.3
2017-May-09 15:00N 45°30' W 073°30'0 0.0 210 / 4 3.8-0.7
2017-May-09 14:00N 45°30' W 073°30'0 0.0 180 / 4 3.8-0.7
2017-May-09 13:00N 45°30' W 073°30'0 0.0 220 / 5 2.7-0.0
2017-May-09 12:00N 45°30' W 073°30'0 0.0 180 / 4 3.0 0.1
2017-May-09 11:00N 45°30' W 073°30'0 0.0 190 / 4 2.7-2.3
2017-May-09 10:00N 45°30' W 073°30'0 0.0 180 / 4 2.7-1.0
2017-May-09 09:00N 45°30' W 073°30'0 0.0 210 / 5 2.2-0.8
2017-May-09 08:00N 45°30' W 073°30'0 0.0 210 / 3 2.3-0.9
2017-May-09 07:00N 45°30' W 073°30'0 0.0 220 / 3 2.4-1.0
2017-May-09 06:00N 45°30' W 073°30'0 0.0 210 / 5 2.8-1.8
2017-May-09 05:00N 45°30' W 073°30'0 0.0 230 / 4 3.0-3.0
2017-May-09 04:00N 45°30' W 073°30'0 0.0 230 / 4 3.3-3.8
2017-May-09 03:00N 45°30' W 073°30'0 0.0 220 / 5 3.3-3.2
2017-May-09 02:00N 45°30' W 073°30'0 0.0 240 / 3 3.5-2.8
2017-May-09 01:00N 45°30' W 073°30'0 0.0 290 / 4 3.7-2.4
2017-May-09 00:00N 45°30' W 073°30'0 0.0 250 / 6 4.1-3.5
2017-May-08 23:00N 45°30' W 073°30'0 0.0 250 / 7 4.2-2.9
2017-May-08 22:00N 45°30' W 073°30'0 0.0 230 / 6 4.5-2.8
2017-May-08 21:00N 45°30' W 073°30'0 0.0 230 / 10 4.3-2.7
2017-May-08 20:00N 45°30' W 073°30'0 0.0 230 / 10 4.1-2.7
2017-May-08 19:00N 45°30' W 073°30'0 0.0 220 / 11 3.9-1.7
2017-May-08 18:00N 45°30' W 073°30'0 0.0 250 / 8 3.6-2.3
2017-May-08 17:00N 45°30' W 073°30'0 0.0 240 / 6 3.3-0.4
2017-May-08 16:00N 45°30' W 073°30'0 0.0 230 / 10 3.3-2.1
2017-May-08 15:00N 45°30' W 073°30'0 0.0 210 / 9 3.2-0.9
2017-May-08 14:00N 45°30' W 073°30'0 0.0 210 / 11 3.1-2.0
2017-May-08 13:00N 45°30' W 073°30'0 0.0 260 / 3 3.7-1.8
2017-May-08 12:00N 45°30' W 073°30'0 0.0 250 / 5 2.9-1.4
2017-May-08 11:00N 45°30' W 073°30'0 0.0 240 / 7 2.6-0.7
2017-May-08 10:00N 45°30' W 073°30'0 0.0 230 / 7 2.2-0.5
2017-May-08 09:00N 45°30' W 073°30'0 0.0 270 / 4 2.6-0.6
2017-May-08 08:00N 45°30' W 073°30'0 0.0 240 / 7 2.8-0.4
2017-May-08 07:00N 45°30' W 073°30'0 0.0 260 / 4 3.6-0.1
2017-May-08 06:00N 45°30' W 073°30'0 0.0 270 / 5 4.2 0.3
2017-May-08 05:00N 45°30' W 073°30'0 0.0 290 / 7 5.0 0.9
2017-May-08 04:00N 45°30' W 073°30'0 0.0 290 / 9 5.4 1.1
2017-May-08 03:00N 45°30' W 073°30'0 0.0 300 / 5 6.0 2.3
2017-May-08 02:00N 45°30' W 073°30'0 0.0 250 / 8 5.9 2.3
2017-May-08 01:00N 45°30' W 073°30'0 0.0 240 / 6 6.4 1.7
2017-May-08 00:00N 45°30' W 073°30'0 0.0 240 / 6 7.0 1.2
2017-May-07 23:00N 45°30' W 073°30'0 0.0 250 / 6 7.5 1.0
2017-May-07 22:00N 45°30' W 073°30'0 0.0 250 / 6 8.5 1.3
2017-May-07 21:00N 45°30' W 073°30'0 0.0 230 / 10 8.8 1.9
2017-May-07 20:00N 45°30' W 073°30'0 0.0 220 / 12 9.1 1.7
2017-May-07 19:00N 45°30' W 073°30'0 0.0 240 / 14 9.0 2.1
2017-May-07 18:00N 45°30' W 073°30'0 0.0 230 / 15 8.6 3.1
2017-May-07 17:00N 45°30' W 073°30'0 0.0 220 / 12 7.9 4.6
2017-May-07 16:00N 45°30' W 073°30'0 0.0 210 / 12 8.5 5.4
2017-May-07 15:00N 45°30' W 073°30'0 0.0 220 / 12 8.3 6.1
2017-May-07 14:00N 45°30' W 073°30'0 0.0 210 / 13 7.8 7.1
2017-May-07 13:00N 45°30' W 073°30'   230 / 6 8.1 8.0
Track history (hours):
 
Tides and Currents Weather Stations Pressure Air Temp Water Temp Dewpoint Dewpoint Depression Visibility Wind Speed Wind Dir Waves Ship Positions

Anna Desgagnes

Last reported at 2017-May-17 13:00 UTC. Time now 2017-Jun-22 18:33 UTC.
Position N 45°30' W 073°30'.
Warning: this ship's position is 36 days out of date.

Length 173 m; draft 7 m.

Type: Ship. MMSI: 316297000.

Wind from 110 at 1 knots

Air temperature 18.5 ° C
Dewpoint 10.8 ° C

Date/timePositionNaut miles runAvg speedWind from/ knotsBaromVisibWave heightAir tempDewpointWater temp
2017-May-17 13:00N 45°30' W 073°30'0 0.0 110 / 1 18.510.8
2017-May-17 12:00N 45°30' W 073°30'0 0.0 140 / 2 16.310.3
2017-May-17 11:00N 45°30' W 073°30'0 0.0 140 / 2 16.0 9.7
2017-May-17 10:00N 45°30' W 073°30'0 0.0 160 / 3 15.6 9.2
2017-May-17 09:00N 45°30' W 073°30'0 0.0 170 / 2 14.8 9.4
2017-May-17 08:00N 45°30' W 073°30'0 0.0 150 / 2 15.1 9.9
2017-May-17 07:00N 45°30' W 073°30'0 0.0 190 / 5 16.4 8.1
2017-May-17 06:00N 45°30' W 073°30'0 0.0 230 / 6 17.0 7.2
2017-May-17 05:00N 45°30' W 073°30'0 0.0 210 / 7 16.9 8.1
2017-May-17 04:00N 45°30' W 073°30'0 0.0 210 / 6 18.1 7.8
2017-May-17 03:00N 45°30' W 073°30'0 0.0 230 / 9 19.0 6.8
2017-May-17 02:00N 45°30' W 073°30'0 0.0 230 / 7 19.4 6.4
2017-May-17 01:00N 45°30' W 073°30'0 0.0 230 / 9 19.7 7.1
2017-May-17 00:00N 45°30' W 073°30'0 0.0 220 / 6 20.4 7.3
2017-May-16 23:00N 45°30' W 073°30'0 0.0 220 / 9 21.2 6.1
2017-May-16 22:00N 45°30' W 073°30'0 0.0 210 / 12 21.4 5.9
2017-May-16 21:00N 45°30' W 073°30'0 0.0 220 / 10 22.2 5.1
2017-May-16 20:00N 45°30' W 073°30'0 0.0 200 / 13 21.4 5.6
2017-May-16 19:00N 45°30' W 073°30'0 0.0 200 / 11 21.0 5.6
2017-May-16 18:00N 45°30' W 073°30'0 0.0 220 / 6 20.0 6.1
2017-May-16 17:00N 45°30' W 073°30'0 0.0 210 / 8 18.4 6.7
2017-May-16 16:00N 45°30' W 073°30'0 0.0 220 / 7 17.3 6.8
2017-May-16 15:00N 45°30' W 073°30'0 0.0 250 / 2 16.5 6.4
2017-May-16 14:00N 45°30' W 073°30'0 0.0 250 / 4 15.5 6.6
2017-May-16 13:00N 45°30' W 073°30'0 0.0 240 / 2 14.6 6.5
2017-May-16 12:00N 45°30' W 073°30'0 0.0 270 / 2 13.9 7.2
2017-May-16 11:00N 45°30' W 073°30'0 0.0 220 / 6 12.6 7.5
2017-May-16 10:00N 45°30' W 073°30'0 0.0 210 / 5 11.7 7.9
2017-May-16 09:00N 45°30' W 073°30'0 0.0 220 / 2 12.8 7.7
2017-May-16 08:00N 45°30' W 073°30'0 0.0 290 / 8 13.8 7.4
2017-May-16 07:00N 45°30' W 073°30'0 0.0 310 / 6 14.4 7.2
2017-May-16 06:00N 45°30' W 073°30'0 0.0 250 / 4 15.1 6.8
2017-May-16 05:00N 45°30' W 073°30'0 0.0 290 / 6 16.1 6.4
2017-May-16 04:00N 45°30' W 073°30'0 0.0 320 / 11 17.2 5.4
2017-May-16 03:00N 45°30' W 073°30'0 0.0 300 / 8 18.0 5.5
2017-May-16 02:00N 45°30' W 073°30'0 0.0 300 / 10 19.0 5.3
2017-May-16 01:00N 45°30' W 073°30'0 0.0 310 / 10 20.2 5.1
2017-May-16 00:00N 45°30' W 073°30'0 0.0 310 / 12 21.7 4.4
2017-May-15 23:00N 45°30' W 073°30'0 0.0 330 / 11 21.8 4.7
2017-May-15 22:00N 45°30' W 073°30'0 0.0 350 / 2 20.5 6.5
2017-May-15 21:00N 45°30' W 073°30'0 0.0 350 / 2 20.6 6.4
2017-May-15 20:00N 45°30' W 073°30'0 0.0 030 / 5 20.1 6.5
2017-May-15 19:00N 45°30' W 073°30'0 0.0 350 / 12 20.1 5.8
2017-May-15 18:00N 45°30' W 073°30'0 0.0 350 / 12 18.5 6.2
2017-May-15 17:00N 45°30' W 073°30'0 0.0 010 / 6 17.7 5.4
2017-May-15 16:00N 45°30' W 073°30'0 0.0 010 / 8 16.5 6.2
2017-May-15 15:00N 45°30' W 073°30'0 0.0 350 / 16 15.3 7.2
2017-May-15 14:00N 45°30' W 073°30'0 0.0 340 / 13 14.2 7.9
2017-May-15 13:00N 45°30' W 073°30'0 0.0 340 / 13 13.4 7.7
2017-May-15 12:00N 45°30' W 073°30'0 0.0 320 / 10 12.3 8.3
2017-May-15 11:00N 45°30' W 073°30'0 0.0 320 / 11 11.4 8.8
2017-May-15 10:00N 45°30' W 073°30'0 0.0 310 / 13 11.1 8.9
2017-May-15 09:00N 45°30' W 073°30'0 0.0 310 / 12 10.8 9.0
2017-May-15 08:00N 45°30' W 073°30'0 0.0 310 / 10 10.5 9.0
2017-May-15 07:00N 45°30' W 073°30'0 0.0 310 / 10 10.1 9.2
2017-May-15 06:00N 45°30' W 073°30'0 0.0 330 / 10 9.9 9.6
2017-May-15 05:00N 45°30' W 073°30'0 0.0 330 / 10 9.6 9.6
2017-May-15 04:00N 45°30' W 073°30'0 0.0 360 / 8 9.7 9.7
2017-May-15 03:00N 45°30' W 073°30'0 0.0 350 / 12 10.3 9.8
2017-May-15 02:00N 45°30' W 073°30'0 0.0 350 / 11 10.7 9.3
2017-May-15 01:00N 45°30' W 073°30'0 0.0 360 / 8 10.6 9.4
2017-May-15 00:00N 45°30' W 073°30'0 0.0 360 / 8 10.5 9.5
2017-May-14 23:00N 45°30' W 073°30'0 0.0 360 / 7 10.7 8.1
2017-May-14 22:00N 45°30' W 073°30'0 0.0 360 / 8 11.3 9.1
2017-May-14 21:00N 45°30' W 073°30'0 0.0 010 / 4 11.3 8.8
2017-May-14 20:00N 45°30' W 073°30'0 0.0 350 / 8 11.1 8.4
2017-May-14 19:00N 45°30' W 073°30'0 0.0 030 / 2 11.7 9.3
2017-May-14 18:00N 45°30' W 073°30'0 0.0 100 / 2 10.4 9.6
2017-May-14 17:00N 45°30' W 073°30'0 0.0 090 / 2 10.5 9.8
2017-May-14 16:00N 45°30' W 073°30'0 0.0 090 / 3 10.3 9.3
2017-May-14 15:00N 45°30' W 073°30'0 0.0 100 / 2 10.5 8.3
2017-May-14 14:00N 45°30' W 073°30'0 0.0 110 / 2 10.4 9.3
2017-May-14 13:00N 45°30' W 073°30'0 0.0 110 / 2 9.8 9.5
2017-May-14 12:00N 45°30' W 073°30'0 0.0 120 / 2 9.3 9.4
2017-May-14 11:00N 45°30' W 073°30'0 0.0 140 / 5 9.4 9.3
2017-May-14 10:00N 45°30' W 073°30'0 0.0 140 / 6 9.6 9.6
2017-May-14 09:00N 45°30' W 073°30'0 0.0 140 / 5 10.210.2
2017-May-14 08:00N 45°30' W 073°30'0 0.0 130 / 4 10.510.4
2017-May-14 07:00N 45°30' W 073°30'0 0.0 150 / 5 11.010.9
2017-May-14 06:00N 45°30' W 073°30'0 0.0 180 / 7 11.211.0
2017-May-14 05:00N 45°30' W 073°30'0 0.0 160 / 2 12.212.2
2017-May-14 04:00N 45°30' W 073°30'0 0.0 150 / 3 12.312.3
2017-May-14 03:00N 45°30' W 073°30'0 0.0 280 / 2 12.412.0
2017-May-14 02:00N 45°30' W 073°30'0 0.0 290 / 3 13.111.1
2017-May-14 01:00N 45°30' W 073°30'0 0.0 240 / 5 13.410.2
2017-May-14 00:00N 45°30' W 073°30'0 0.0 310 / 8 14.011.6
2017-May-13 23:00N 45°30' W 073°30'0 0.0 270 / 2 15.6 9.8
2017-May-13 22:00N 45°30' W 073°30'0 0.0 240 / 7 16.2 9.8
2017-May-13 21:00N 45°30' W 073°30'0 0.0 090 / 3 17.0 7.5
2017-May-13 20:00N 45°30' W 073°30'0 0.0 160 / 6 18.0 7.0
2017-May-13 19:00N 45°30' W 073°30'0 0.0 140 / 5 18.3 7.5
2017-May-13 18:00N 45°30' W 073°30'0 0.0 140 / 7 18.5 6.9
2017-May-13 17:00N 45°30' W 073°30'0 0.0 140 / 8 18.0 6.7
2017-May-13 16:00N 45°30' W 073°30'0 0.0 140 / 9 17.8 7.3
2017-May-13 15:00N 45°30' W 073°30'0 0.0 130 / 6 17.2 7.6
2017-May-13 14:00N 45°30' W 073°30'0 0.0 120 / 4 16.0 9.0
2017-May-13 13:00N 45°30' W 073°30'0 0.0 140 / 6 14.6 9.3
2017-May-13 12:00N 45°30' W 073°30'0 0.0 150 / 3 13.1 9.7
2017-May-13 11:00N 45°30' W 073°30'0 0.0 130 / 2 11.710.1
2017-May-13 10:00N 45°30' W 073°30'0 0.0 10.5 9.3
2017-May-13 09:00N 45°30' W 073°30'0 0.0 360 / 2 10.1 9.4
2017-May-13 08:00N 45°30' W 073°30'0 0.0 350 / 4 10.4 9.5
2017-May-13 07:00N 45°30' W 073°30'0 0.0 350 / 7 11.3 8.9
2017-May-13 06:00N 45°30' W 073°30'0 0.0 350 / 8 11.6 8.5
2017-May-13 05:00N 45°30' W 073°30'0 0.0 350 / 8 12.1 8.5
2017-May-13 04:00N 45°30' W 073°30'0 0.0 350 / 7 12.8 8.2
2017-May-13 03:00N 45°30' W 073°30'0 0.0 360 / 6 13.6 8.1
2017-May-13 02:00N 45°30' W 073°30'0 0.0 360 / 7 14.0 8.3
2017-May-13 01:00N 45°30' W 073°30'0 0.0 360 / 7 14.7 8.3
2017-May-13 00:00N 45°30' W 073°30'0 0.0 360 / 8 15.8 8.2
2017-May-12 23:00N 45°30' W 073°30'0 0.0 360 / 9 16.4 8.3
2017-May-12 22:00N 45°30' W 073°30'0 0.0 360 / 9 16.7 8.3
2017-May-12 21:00N 45°30' W 073°30'0 0.0 350 / 10 16.3 8.0
2017-May-12 20:00N 45°30' W 073°30'0 0.0 350 / 11 15.9 8.1
2017-May-12 19:00N 45°30' W 073°30'0 0.0 350 / 7 15.6 7.3
2017-May-12 18:00N 45°30' W 073°30'0 0.0 350 / 7 15.0 8.1
2017-May-12 17:00N 45°30' W 073°30'0 0.0 360 / 5 14.6 7.8
2017-May-12 16:00N 45°30' W 073°30'0 0.0 350 / 5 14.4 7.6
2017-May-12 15:00N 45°30' W 073°30'0 0.0 360 / 4 13.6 7.7
2017-May-12 14:00N 45°30' W 073°30'0 0.0 070 / 1 13.9 8.0
2017-May-12 13:00N 45°30' W 073°30'0 0.0 030 / 4 12.0 8.2
2017-May-12 12:00N 45°30' W 073°30'0 0.0 360 / 4 10.0 8.5
2017-May-12 11:00N 45°30' W 073°30'0 0.0 360 / 7 8.5 8.1
2017-May-12 10:00N 45°30' W 073°30'0 0.0 010 / 5 8.5 8.2
2017-May-12 09:00N 45°30' W 073°30'0 0.0 360 / 6 8.4 8.3
2017-May-12 08:00N 45°30' W 073°30'0 0.0 360 / 7 8.2 8.2
2017-May-12 07:00N 45°30' W 073°30'0 0.0 360 / 7 8.1 8.1
2017-May-12 06:00N 45°30' W 073°30'0 0.0 360 / 8 8.6 8.6
2017-May-12 05:00N 45°30' W 073°30'0 0.0 360 / 5 9.3 9.1
2017-May-12 04:00N 45°30' W 073°30'0 0.0 020 / 6 9.9 9.3
2017-May-12 03:00N 45°30' W 073°30'0 0.0 020 / 5 10.6 8.9
2017-May-12 02:00N 45°30' W 073°30'0 0.0 020 / 6 11.5 8.9
2017-May-12 01:00N 45°30' W 073°30'0 0.0 360 / 7 11.4 9.3
2017-May-12 00:00N 45°30' W 073°30'0 0.0 360 / 8 12.3 8.5
2017-May-11 23:00N 45°30' W 073°30'0 0.0 360 / 10 12.3 8.1
2017-May-11 22:00N 45°30' W 073°30'0 0.0 020 / 6 13.0 7.2
2017-May-11 21:00N 45°30' W 073°30'0 0.0 020 / 8 13.0 6.4
2017-May-11 20:00N 45°30' W 073°30'0 0.0 020 / 7 12.7 6.7
2017-May-11 19:00N 45°30' W 073°30'0 0.0 030 / 9 12.2 6.2
2017-May-11 18:00N 45°30' W 073°30'0 0.0 030 / 7 11.3 6.3
2017-May-11 17:00N 45°30' W 073°30'0 0.0 030 / 8 10.2 6.2
2017-May-11 16:00N 45°30' W 073°30'0 0.0 360 / 8 9.3 6.5
2017-May-11 15:00N 45°30' W 073°30'0 0.0 010 / 8 8.5 6.7
2017-May-11 14:00N 45°30' W 073°30'0 0.0 020 / 10 8.6 6.3
2017-May-11 13:00N 45°30' W 073°30'0 0.0 020 / 11 8.6 6.1
2017-May-11 12:00N 45°30' W 073°30'0 0.0 020 / 8 7.8 6.0
2017-May-11 11:00N 45°30' W 073°30'0 0.0 010 / 7 6.9 5.9
2017-May-11 10:00N 45°30' W 073°30'0 0.0 360 / 7 6.9 5.5
2017-May-11 09:00N 45°30' W 073°30'0 0.0 010 / 6 7.1 5.3
2017-May-11 08:00N 45°30' W 073°30'0 0.0 030 / 7 7.1 5.5
2017-May-11 07:00N 45°30' W 073°30'0 0.0 030 / 7 7.6 5.4
2017-May-11 06:00N 45°30' W 073°30'0 0.0 020 / 8 8.6 5.0
2017-May-11 05:00N 45°30' W 073°30'0 0.0 020 / 5 9.1 4.8
2017-May-11 04:00N 45°30' W 073°30'0 0.0 020 / 3 9.1 5.1
2017-May-11 03:00N 45°30' W 073°30'0 0.0 300 / 2 10.0 4.5
2017-May-11 02:00N 45°30' W 073°30'0 0.0 030 / 3 10.4 3.6
2017-May-11 01:00N 45°30' W 073°30'0 0.0 050 / 1 10.9 3.5
2017-May-11 00:00N 45°30' W 073°30'0 0.0 030 / 1 11.1 2.8
2017-May-10 23:00N 45°30' W 073°30'0 0.0 040 / 2 11.6 2.3
2017-May-10 22:00N 45°30' W 073°30'0 0.0 350 / 4 11.3 1.2
2017-May-10 21:00N 45°30' W 073°30'0 0.0 010 / 5 11.3 2.1
2017-May-10 20:00N 45°30' W 073°30'0 0.0 020 / 5 10.9 2.1
2017-May-10 19:00N 45°30' W 073°30'0 0.0 010 / 5 10.3 1.3
2017-May-10 18:00N 45°30' W 073°30'0 0.0 020 / 7 9.6 1.0
2017-May-10 17:00N 45°30' W 073°30'0 0.0 350 / 9 10.1 0.6
2017-May-10 16:00N 45°30' W 073°30'0 0.0 360 / 9 9.7 1.0
2017-May-10 15:00N 45°30' W 073°30'0 0.0 360 / 9 9.1-0.0
2017-May-10 14:00N 45°30' W 073°30'0 0.0 360 / 6 8.5-0.2
2017-May-10 13:00N 45°30' W 073°30'0 0.0 340 / 7 7.5-1.3
2017-May-10 12:00N 45°30' W 073°30'0 0.0 340 / 7 6.0-1.3
2017-May-10 11:00N 45°30' W 073°30'0 0.0 320 / 6 6.0-1.5
2017-May-10 10:00N 45°30' W 073°30'0 0.0 320 / 8 5.5-1.2
2017-May-10 09:00N 45°30' W 073°30'0 0.0 330 / 6 5.7-0.8
2017-May-10 08:00N 45°30' W 073°30'0 0.0 320 / 7 5.8-0.5
2017-May-10 07:00N 45°30' W 073°30'0 0.0 340 / 6 6.2-0.1
2017-May-10 06:00N 45°30' W 073°30'0 0.0 340 / 5 6.7-0.5
2017-May-10 05:00N 45°30' W 073°30'0 0.0 320 / 4 7.0-1.8
2017-May-10 04:00N 45°30' W 073°30'0 0.0 280 / 4 7.0-2.5
2017-May-10 03:00N 45°30' W 073°30'0 0.0 300 / 4 7.2-2.1
2017-May-10 02:00N 45°30' W 073°30'0 0.0 020 / 1 7.5-0.2
2017-May-10 01:00N 45°30' W 073°30'0 0.0 030 / 2 7.6-2.1
2017-May-10 00:00N 45°30' W 073°30'0 0.0 060 / 1 7.8-1.6
2017-May-09 23:00N 45°30' W 073°30'0 0.0 160 / 1 7.7-2.4
2017-May-09 22:00N 45°30' W 073°30'0 0.0 120 / 2 7.7-0.9
2017-May-09 21:00N 45°30' W 073°30'0 0.0 110 / 2 7.3-0.3
2017-May-09 20:00N 45°30' W 073°30'0 0.0 140 / 1 7.4-1.8
2017-May-09 19:00N 45°30' W 073°30'0 0.0 110 / 2 6.8-1.7
2017-May-09 18:00N 45°30' W 073°30'0 0.0 110 / 3 6.6-1.2
2017-May-09 17:00N 45°30' W 073°30'0 0.0 190 / 4 5.7-2.3
2017-May-09 16:00N 45°30' W 073°30'0 0.0 210 / 3 4.6-2.3
2017-May-09 15:00N 45°30' W 073°30'0 0.0 210 / 4 3.8-0.7
2017-May-09 14:00N 45°30' W 073°30'0 0.0 180 / 4 3.8-0.7
2017-May-09 13:00N 45°30' W 073°30'0 0.0 220 / 5 2.7-0.0
2017-May-09 12:00N 45°30' W 073°30'0 0.0 180 / 4 3.0 0.1
2017-May-09 11:00N 45°30' W 073°30'0 0.0 190 / 4 2.7-2.3
2017-May-09 10:00N 45°30' W 073°30'0 0.0 180 / 4 2.7-1.0
2017-May-09 09:00N 45°30' W 073°30'0 0.0 210 / 5 2.2-0.8
2017-May-09 08:00N 45°30' W 073°30'0 0.0 210 / 3 2.3-0.9
2017-May-09 07:00N 45°30' W 073°30'0 0.0 220 / 3 2.4-1.0
2017-May-09 06:00N 45°30' W 073°30'0 0.0 210 / 5 2.8-1.8
2017-May-09 05:00N 45°30' W 073°30'0 0.0 230 / 4 3.0-3.0
2017-May-09 04:00N 45°30' W 073°30'0 0.0 230 / 4 3.3-3.8
2017-May-09 03:00N 45°30' W 073°30'0 0.0 220 / 5 3.3-3.2
2017-May-09 02:00N 45°30' W 073°30'0 0.0 240 / 3 3.5-2.8
2017-May-09 01:00N 45°30' W 073°30'0 0.0 290 / 4 3.7-2.4
2017-May-09 00:00N 45°30' W 073°30'0 0.0 250 / 6 4.1-3.5
2017-May-08 23:00N 45°30' W 073°30'0 0.0 250 / 7 4.2-2.9
2017-May-08 22:00N 45°30' W 073°30'0 0.0 230 / 6 4.5-2.8
2017-May-08 21:00N 45°30' W 073°30'0 0.0 230 / 10 4.3-2.7
2017-May-08 20:00N 45°30' W 073°30'0 0.0 230 / 10 4.1-2.7
2017-May-08 19:00N 45°30' W 073°30'0 0.0 220 / 11 3.9-1.7
2017-May-08 18:00N 45°30' W 073°30'0 0.0 250 / 8 3.6-2.3
2017-May-08 17:00N 45°30' W 073°30'0 0.0 240 / 6 3.3-0.4
2017-May-08 16:00N 45°30' W 073°30'0 0.0 230 / 10 3.3-2.1
2017-May-08 15:00N 45°30' W 073°30'0 0.0 210 / 9 3.2-0.9
2017-May-08 14:00N 45°30' W 073°30'0 0.0 210 / 11 3.1-2.0
2017-May-08 13:00N 45°30' W 073°30'0 0.0 260 / 3 3.7-1.8
2017-May-08 12:00N 45°30' W 073°30'0 0.0 250 / 5 2.9-1.4
2017-May-08 11:00N 45°30' W 073°30'0 0.0 240 / 7 2.6-0.7
2017-May-08 10:00N 45°30' W 073°30'0 0.0 230 / 7 2.2-0.5
2017-May-08 09:00N 45°30' W 073°30'0 0.0 270 / 4 2.6-0.6
2017-May-08 08:00N 45°30' W 073°30'0 0.0 240 / 7 2.8-0.4
2017-May-08 07:00N 45°30' W 073°30'0 0.0 260 / 4 3.6-0.1
2017-May-08 06:00N 45°30' W 073°30'0 0.0 270 / 5 4.2 0.3
2017-May-08 05:00N 45°30' W 073°30'0 0.0 290 / 7 5.0 0.9
2017-May-08 04:00N 45°30' W 073°30'0 0.0 290 / 9 5.4 1.1
2017-May-08 03:00N 45°30' W 073°30'0 0.0 300 / 5 6.0 2.3
2017-May-08 02:00N 45°30' W 073°30'0 0.0 250 / 8 5.9 2.3
2017-May-08 01:00N 45°30' W 073°30'0 0.0 240 / 6 6.4 1.7
2017-May-08 00:00N 45°30' W 073°30'0 0.0 240 / 6 7.0 1.2
2017-May-07 23:00N 45°30' W 073°30'0 0.0 250 / 6 7.5 1.0
2017-May-07 22:00N 45°30' W 073°30'0 0.0 250 / 6 8.5 1.3
2017-May-07 21:00N 45°30' W 073°30'0 0.0 230 / 10 8.8 1.9
2017-May-07 20:00N 45°30' W 073°30'0 0.0 220 / 12 9.1 1.7
2017-May-07 19:00N 45°30' W 073°30'0 0.0 240 / 14 9.0 2.1
2017-May-07 18:00N 45°30' W 073°30'0 0.0 230 / 15 8.6 3.1
2017-May-07 17:00N 45°30' W 073°30'0 0.0 220 / 12 7.9 4.6
2017-May-07 16:00N 45°30' W 073°30'0 0.0 210 / 12 8.5 5.4
2017-May-07 15:00N 45°30' W 073°30'0 0.0 220 / 12 8.3 6.1
2017-May-07 14:00N 45°30' W 073°30'0 0.0 210 / 13 7.8 7.1
2017-May-07 13:00N 45°30' W 073°30'   230 / 6 8.1 8.0

Dump ship's entire track history